createdAt,value
2023-10-30T00:02:21.890Z,98774.03
2023-10-30T00:04:50.426Z,98767.06
2023-10-30T00:07:19.322Z,98756.34
2023-10-30T00:09:46.481Z,98757.97
2023-10-30T00:12:13.626Z,98750.41
2023-10-30T00:14:40.653Z,98745.66
2023-10-30T00:17:07.678Z,98757.38
2023-10-30T00:19:35.000Z,98762.72
2023-10-30T00:22:02.019Z,98770.75
2023-10-30T00:24:31.080Z,98761.91
2023-10-30T00:26:58.159Z,98761.09
2023-10-30T00:29:25.357Z,98765.41
2023-10-30T00:31:52.451Z,98770.75
2023-10-30T00:34:19.652Z,98778.78
2023-10-30T00:36:46.745Z,98784.13
2023-10-30T00:39:13.857Z,98779.81
2023-10-30T00:41:40.879Z,98801.44
2023-10-30T00:44:07.973Z,98800.41
2023-10-30T00:46:35.012Z,98798.78
2023-10-30T00:49:02.012Z,98811.31
2023-10-30T00:51:29.039Z,98812.38
2023-10-30T00:53:56.109Z,98817.72
2023-10-30T00:56:23.108Z,98816.09
2023-10-30T00:58:50.107Z,98810.75
2023-10-30T01:01:18.331Z,98801.91
2023-10-30T01:03:46.833Z,98807.47
2023-10-30T01:06:13.977Z,98824.56
2023-10-30T01:08:41.532Z,98826.66
2023-10-30T01:11:08.544Z,98817.81
2023-10-30T01:13:37.378Z,98824.19
2023-10-30T01:16:06.573Z,98823.38
2023-10-30T01:18:33.846Z,98824.41
2023-10-30T01:21:00.960Z,98827.88
2023-10-30T01:23:28.078Z,98831.84
2023-10-30T01:25:55.070Z,98808.81
2023-10-30T01:28:22.092Z,98815.22
2023-10-30T01:30:49.096Z,98818.31
2023-10-30T01:33:16.177Z,98819.38
2023-10-30T01:35:43.292Z,98813.22
2023-10-30T01:38:10.340Z,98812.88
2023-10-30T01:40:37.484Z,98814.91
2023-10-30T01:43:11.081Z,98811.09
2023-10-30T01:45:38.176Z,98803.28
2023-10-30T01:48:05.851Z,98806.16
2023-10-30T01:50:33.855Z,98799.44
2023-10-30T01:53:03.397Z,98788.59
2023-10-30T01:55:31.311Z,98787.19
2023-10-30T01:57:58.470Z,98792.75
2023-10-30T02:00:26.107Z,98781.69
2023-10-30T02:02:54.616Z,98783.78
2023-10-30T02:05:21.771Z,98774.09
2023-10-30T02:07:49.286Z,98772.13
2023-10-30T02:10:16.485Z,98774.41
2023-10-30T02:12:44.221Z,98757.22
2023-10-30T02:15:11.410Z,98743.72
2023-10-30T02:17:38.547Z,98739.41
2023-10-30T02:20:06.216Z,98745.19
2023-10-30T02:22:33.228Z,98737.25
2023-10-30T02:25:00.515Z,98738.06
2023-10-30T02:27:27.586Z,98735.84
2023-10-30T02:29:54.640Z,98740.63
2023-10-30T02:32:21.792Z,98744.28
2023-10-30T02:34:48.865Z,98746.38
2023-10-30T02:37:16.976Z,98764.25
2023-10-30T02:39:44.014Z,98756.25
2023-10-30T02:42:11.320Z,98746.84
2023-10-30T02:44:38.497Z,98746.84
2023-10-30T02:47:05.598Z,98747.66
2023-10-30T02:49:32.617Z,98745.22
2023-10-30T02:52:00.159Z,98750.09
2023-10-30T02:54:27.236Z,98744.75
2023-10-30T02:56:54.573Z,98735.34
2023-10-30T02:59:21.618Z,98727.09
2023-10-30T03:01:48.669Z,98719.31
2023-10-30T03:04:18.370Z,98720.72
2023-10-30T03:06:45.865Z,98722.19
2023-10-30T03:09:12.935Z,98702.69
2023-10-30T03:11:39.919Z,98703.50
2023-10-30T03:14:07.314Z,98698.41
2023-10-30T03:16:34.366Z,98695.94
2023-10-30T03:19:01.441Z,98703.97
2023-10-30T03:21:28.521Z,98694.56
2023-10-30T03:23:56.247Z,98697.22
2023-10-30T03:26:25.433Z,98688.38
2023-10-30T03:28:52.741Z,98700.09
2023-10-30T03:31:19.857Z,98692.91
2023-10-30T03:33:49.042Z,98693.72
2023-10-30T03:36:25.086Z,98708.09
2023-10-30T03:38:52.559Z,98693.72
2023-10-30T03:41:20.511Z,98671.78
2023-10-30T03:43:48.151Z,98676.28
2023-10-30T03:46:15.458Z,98668.53
2023-10-30T03:48:43.676Z,98663.19
2023-10-30T03:51:10.787Z,98670.38
2023-10-30T03:53:37.788Z,98669.75
2023-10-30T03:56:08.408Z,98677.78
2023-10-30T03:58:36.134Z,98678.22
2023-10-30T04:01:09.949Z,98685.44
2023-10-30T04:03:37.139Z,98692.38
2023-10-30T04:06:05.103Z,98694.00
2023-10-30T04:08:32.372Z,98695.66
2023-10-30T04:10:59.537Z,98694.81
2023-10-30T04:13:26.601Z,98690.31
2023-10-30T04:15:53.688Z,98689.28
2023-10-30T04:18:20.893Z,98686.38
2023-10-30T04:20:47.989Z,98691.97
2023-10-30T04:23:14.982Z,98682.91
2023-10-30T04:25:41.953Z,98675.72
2023-10-30T04:28:09.026Z,98678.16
2023-10-30T04:30:36.667Z,98688.25
2023-10-30T04:33:03.926Z,98704.03
2023-10-30T04:35:30.963Z,98692.53
2023-10-30T04:37:58.017Z,98685.59
2023-10-30T04:40:25.067Z,98697.06
2023-10-30T04:42:52.088Z,98699.75
2023-10-30T04:45:19.370Z,98699.50
2023-10-30T04:47:46.504Z,98695.22
2023-10-30T04:50:13.640Z,98690.91
2023-10-30T04:52:40.660Z,98691.50
2023-10-30T04:55:08.074Z,98683.72
2023-10-30T04:57:35.064Z,98684.53
2023-10-30T05:00:03.819Z,98678.38
2023-10-30T05:02:30.988Z,98679.19
2023-10-30T05:04:57.992Z,98668.53
2023-10-30T05:07:25.013Z,98663.19
2023-10-30T05:09:52.417Z,98667.72
2023-10-30T05:12:19.755Z,98649.81
2023-10-30T05:14:46.732Z,98658.06
2023-10-30T05:17:14.317Z,98680.25
2023-10-30T05:19:41.376Z,98684.75
2023-10-30T05:22:08.393Z,98681.28
2023-10-30T05:24:35.496Z,98681.28
2023-10-30T05:27:02.549Z,98691.97
2023-10-30T05:29:29.527Z,98661.56
2023-10-30T05:31:56.569Z,98673.28
2023-10-30T05:34:25.581Z,98660.50
2023-10-30T05:36:52.686Z,98646.56
2023-10-30T05:39:19.713Z,98652.72
2023-10-30T05:41:47.296Z,98658.28
2023-10-30T05:44:14.354Z,98656.22
2023-10-30T05:46:41.377Z,98650.06
2023-10-30T05:49:08.615Z,98659.94
2023-10-30T05:51:35.618Z,98666.88
2023-10-30T05:54:02.606Z,98673.84
2023-10-30T05:56:29.614Z,98688.44
2023-10-30T05:58:58.372Z,98705.91
2023-10-30T06:01:25.461Z,98725.16
2023-10-30T06:03:52.520Z,98747.34
2023-10-30T06:06:19.676Z,98745.47
2023-10-30T06:08:46.682Z,98746.28
2023-10-30T06:11:13.729Z,98741.19
2023-10-30T06:13:40.728Z,98726.78
2023-10-30T06:16:07.833Z,98695.56
2023-10-30T06:18:34.885Z,98691.03
2023-10-30T06:21:02.950Z,98688.59
2023-10-30T06:23:29.957Z,98680.38
2023-10-30T06:25:57.009Z,98681.41
2023-10-30T06:28:24.029Z,98700.91
2023-10-30T06:30:51.381Z,98729.47
2023-10-30T06:33:18.480Z,98733.75
2023-10-30T06:35:45.530Z,98699.06
2023-10-30T06:38:12.508Z,98752.44
2023-10-30T06:40:39.520Z,98715.91
2023-10-30T06:43:06.485Z,98715.91
2023-10-30T06:45:33.534Z,98718.34
2023-10-30T06:48:00.595Z,98708.72
2023-10-30T06:50:27.838Z,98694.31
2023-10-30T06:52:54.902Z,98680.97
2023-10-30T06:55:21.870Z,98660.66
2023-10-30T06:57:48.893Z,98660.66
2023-10-30T07:00:16.168Z,98657.19
2023-10-30T07:02:43.297Z,98668.66
2023-10-30T07:05:10.360Z,98675.63
2023-10-30T07:07:37.552Z,98689.81
2023-10-30T07:10:05.140Z,98679.34
2023-10-30T07:12:32.228Z,98678.31
2023-10-30T07:14:59.248Z,98672.97
2023-10-30T07:17:26.371Z,98683.66
2023-10-30T07:19:53.577Z,98689.00
2023-10-30T07:22:21.022Z,98693.28
2023-10-30T07:24:48.254Z,98712.78
2023-10-30T07:27:17.701Z,98722.66
2023-10-30T07:29:46.512Z,98727.75
2023-10-30T07:32:13.578Z,98730.44
2023-10-30T07:34:42.700Z,98693.88
2023-10-30T07:37:09.698Z,98697.16
2023-10-30T07:39:36.895Z,98695.50
2023-10-30T07:42:04.222Z,98686.47
2023-10-30T07:44:31.200Z,98685.63
2023-10-30T07:46:58.355Z,98661.38
2023-10-30T07:49:25.460Z,98656.88
2023-10-30T07:51:52.642Z,98652.78
2023-10-30T07:54:19.711Z,98651.28
2023-10-30T07:56:46.807Z,98664.19
2023-10-30T07:59:13.794Z,98657.94
2023-10-30T08:01:41.203Z,98654.38
2023-10-30T08:04:10.768Z,98651.84
2023-10-30T08:06:38.152Z,98661.06
2023-10-30T08:09:06.152Z,98673.50
2023-10-30T08:11:33.541Z,98663.53
2023-10-30T08:14:00.632Z,98662.03
2023-10-30T08:16:27.759Z,98663.44
2023-10-30T08:18:54.893Z,98677.16
2023-10-30T08:21:21.927Z,98685.19
2023-10-30T08:23:48.964Z,98669.13
2023-10-30T08:26:15.997Z,98710.84
2023-10-30T08:28:45.799Z,98775.00
2023-10-30T08:31:12.954Z,98756.91
2023-10-30T08:33:40.055Z,98771.66
2023-10-30T08:36:07.497Z,98771.44
2023-10-30T08:38:34.505Z,98699.03
2023-10-30T08:41:01.536Z,98626.03
2023-10-30T08:43:28.519Z,98620.25
2023-10-30T08:45:55.691Z,98666.28
2023-10-30T08:48:22.861Z,98687.00
2023-10-30T08:50:50.653Z,98696.53
2023-10-30T08:53:18.358Z,98686.56
2023-10-30T08:55:45.762Z,98677.38
2023-10-30T08:58:12.749Z,98673.56
2023-10-30T09:00:39.807Z,98673.28
2023-10-30T09:03:07.321Z,98672.91
2023-10-30T09:05:34.645Z,98667.22
2023-10-30T09:08:01.753Z,98671.78
2023-10-30T09:10:33.300Z,98669.31
2023-10-30T09:13:00.413Z,98659.91
2023-10-30T09:15:28.594Z,98665.69
2023-10-30T09:17:58.142Z,98663.47
2023-10-30T09:20:25.180Z,98654.00
2023-10-30T09:22:52.201Z,98648.31
2023-10-30T09:25:19.392Z,98638.03
2023-10-30T09:27:46.952Z,98636.25
2023-10-30T09:30:17.678Z,98645.44
2023-10-30T09:32:44.901Z,98635.78
2023-10-30T09:35:12.037Z,98637.41
2023-10-30T09:37:40.292Z,98631.56
2023-10-30T09:40:08.243Z,98621.66
2023-10-30T09:42:37.271Z,98625.16
2023-10-30T09:45:07.623Z,98620.63
2023-10-30T09:47:35.405Z,98625.50
2023-10-30T09:50:04.153Z,98629.66
2023-10-30T09:52:32.607Z,98624.97
2023-10-30T09:55:00.760Z,98609.47
2023-10-30T09:57:29.710Z,98600.94
2023-10-30T09:59:59.079Z,98593.47
2023-10-30T10:02:26.685Z,98591.09
2023-10-30T10:04:53.801Z,98569.09
2023-10-30T10:07:22.630Z,98564.56
2023-10-30T10:10:02.926Z,98557.00
2023-10-30T10:12:32.413Z,98561.56
2023-10-30T10:14:59.610Z,98570.88
2023-10-30T10:17:27.011Z,98565.50
2023-10-30T10:19:54.077Z,98563.91
2023-10-30T10:22:32.417Z,98556.09
2023-10-30T10:25:01.728Z,98547.00
2023-10-30T10:27:29.065Z,98545.38
2023-10-30T10:29:57.846Z,98537.59
2023-10-30T10:32:29.455Z,98528.97
2023-10-30T10:35:05.901Z,98516.31
2023-10-30T10:37:34.928Z,98504.78
2023-10-30T10:40:03.907Z,98513.63
2023-10-30T10:42:34.260Z,98508.03
2023-10-30T10:45:03.066Z,98490.88
2023-10-30T10:47:30.823Z,98496.34
2023-10-30T10:49:58.378Z,98484.31
2023-10-30T10:52:32.462Z,98488.94
2023-10-30T10:55:06.814Z,98492.75
2023-10-30T10:57:50.658Z,98495.53
2023-10-30T11:00:18.584Z,98481.41
2023-10-30T11:02:50.532Z,98475.53
2023-10-30T11:05:18.681Z,98469.16
2023-10-30T11:08:17.040Z,98464.00
2023-10-30T11:10:52.136Z,98475.31
2023-10-30T11:14:10.109Z,98464.09
2023-10-30T11:16:50.952Z,98452.81
2023-10-30T11:19:21.708Z,98449.53
2023-10-30T11:21:51.894Z,98448.44
2023-10-30T11:24:54.803Z,98432.81
2023-10-30T11:27:27.653Z,98438.69
2023-10-30T11:30:04.484Z,98420.63
2023-10-30T11:32:37.597Z,98419.25
2023-10-30T11:35:05.097Z,98418.69
2023-10-30T11:37:34.033Z,98406.56
2023-10-30T11:40:06.138Z,98406.81
2023-10-30T11:42:35.604Z,98413.25
2023-10-30T11:45:24.205Z,98403.59
2023-10-30T11:48:27.085Z,98394.97
2023-10-30T11:50:58.224Z,98403.81
2023-10-30T11:53:27.256Z,98383.69
2023-10-30T11:55:58.525Z,98382.88
2023-10-30T11:58:25.786Z,98364.38
2023-10-30T12:00:52.904Z,98360.06
2023-10-30T12:03:20.024Z,98360.06
2023-10-30T12:05:47.984Z,98355.75
2023-10-30T12:08:15.124Z,98353.91
2023-10-30T12:10:42.331Z,98340.25
2023-10-30T12:13:11.222Z,98337.56
2023-10-30T12:15:38.682Z,98330.66
2023-10-30T12:18:08.714Z,98326.09
2023-10-30T12:20:35.739Z,98304.97
2023-10-30T12:23:02.797Z,98310.34
2023-10-30T12:25:29.818Z,98302.06
2023-10-30T12:28:05.022Z,98300.75
2023-10-30T12:30:36.775Z,98297.03
2023-10-30T12:33:04.214Z,98292.47
2023-10-30T12:35:31.794Z,98291.41
2023-10-30T12:37:58.846Z,98291.16
2023-10-30T12:40:26.008Z,98278.28
2023-10-30T12:42:54.583Z,98279.13
2023-10-30T12:45:22.407Z,98268.16
2023-10-30T12:47:51.825Z,98255.34
2023-10-30T12:50:19.700Z,98236.56
2023-10-30T12:52:47.063Z,98213.00
2023-10-30T12:55:14.426Z,98213.81
2023-10-30T12:57:41.920Z,98226.16
2023-10-30T13:00:11.101Z,98220.56
2023-10-30T13:02:38.958Z,98201.28
2023-10-30T13:05:07.212Z,98195.91
2023-10-30T13:07:34.398Z,98199.16
2023-10-30T13:10:02.840Z,98191.66
2023-10-30T13:12:31.817Z,98178.81
2023-10-30T13:14:59.098Z,98168.09
2023-10-30T13:17:26.252Z,98167.03
2023-10-30T13:19:54.122Z,98166.78
2023-10-30T13:22:21.138Z,98152.31
2023-10-30T13:24:50.311Z,98163.84
2023-10-30T13:27:17.661Z,98161.72
2023-10-30T13:29:44.987Z,98157.16
2023-10-30T13:32:12.100Z,98157.97
2023-10-30T13:34:39.205Z,98162.25
2023-10-30T13:37:06.484Z,98168.19
2023-10-30T13:39:33.500Z,98166.59
2023-10-30T13:42:00.600Z,98147.81
2023-10-30T13:44:27.660Z,98154.00
2023-10-30T13:46:55.109Z,98155.34
2023-10-30T13:49:22.204Z,98142.19
2023-10-30T13:51:49.566Z,98119.66
2023-10-30T13:54:16.689Z,98114.84
2023-10-30T13:56:43.641Z,98114.03
2023-10-30T13:59:10.722Z,98121.03
2023-10-30T14:01:37.820Z,98087.22
2023-10-30T14:04:05.277Z,98088.84
2023-10-30T14:06:32.414Z,98096.66
2023-10-30T14:08:59.785Z,98090.47
2023-10-30T14:11:26.910Z,98095.59
2023-10-30T14:13:54.239Z,98083.25
2023-10-30T14:16:21.628Z,98078.69
2023-10-30T14:18:50.406Z,98078.69
2023-10-30T14:21:17.720Z,98074.41
2023-10-30T14:23:44.883Z,98074.13
2023-10-30T14:26:11.956Z,98069.31
2023-10-30T14:28:39.071Z,98076.00
2023-10-30T14:31:06.205Z,98064.97
2023-10-30T14:33:33.435Z,98057.78
2023-10-30T14:36:00.847Z,98059.91
2023-10-30T14:38:29.217Z,98061.53
2023-10-30T14:40:56.290Z,98066.34
2023-10-30T14:43:23.321Z,98050.81
2023-10-30T14:45:50.640Z,98043.25
2023-10-30T14:48:17.685Z,98042.22
2023-10-30T14:50:44.710Z,98044.63
2023-10-30T14:53:11.786Z,98057.78
2023-10-30T14:55:38.797Z,98052.41
2023-10-30T14:58:05.929Z,98056.97
2023-10-30T15:00:33.057Z,98063.94
2023-10-30T15:03:00.373Z,98066.38
2023-10-30T15:05:28.599Z,98066.94
2023-10-30T15:07:56.987Z,98079.28
2023-10-30T15:10:24.463Z,98083.03
2023-10-30T15:12:51.704Z,98090.50
2023-10-30T15:15:18.840Z,98096.44
2023-10-30T15:17:46.066Z,98087.00
2023-10-30T15:20:13.119Z,98087.00
2023-10-30T15:22:40.270Z,98081.38
2023-10-30T15:25:08.409Z,98082.44
2023-10-30T15:27:37.101Z,98074.94
2023-10-30T15:30:06.714Z,98079.22
2023-10-30T15:32:37.472Z,98070.06
2023-10-30T15:35:04.918Z,98072.97
2023-10-30T15:37:32.075Z,98064.16
2023-10-30T15:39:59.299Z,98055.56
2023-10-30T15:42:27.246Z,98041.09
2023-10-30T15:44:55.648Z,98046.72
2023-10-30T15:47:25.606Z,98044.28
2023-10-30T15:49:53.610Z,98027.16
2023-10-30T15:59:56.693Z,98016.66
2023-10-30T16:02:25.141Z,98013.69
2023-10-30T16:07:22.797Z,98013.69
2023-10-30T16:09:50.143Z,98011.56
2023-10-30T16:12:18.641Z,98000.56
2023-10-30T16:14:45.721Z,98007.53
2023-10-30T16:20:21.863Z,98011.03
2023-10-30T16:22:36.675Z,98020.16
2023-10-30T16:25:05.084Z,98019.09
2023-10-30T16:27:33.469Z,98025.78
2023-10-30T16:30:02.818Z,98013.69
2023-10-30T16:32:33.009Z,98036.75
2023-10-30T16:35:00.224Z,98026.84
2023-10-30T16:37:27.392Z,98036.22
2023-10-30T16:39:56.369Z,98042.44
2023-10-30T16:42:23.436Z,98033.00
2023-10-30T16:44:54.779Z,98027.66
2023-10-30T16:47:23.315Z,98026.31
2023-10-30T16:49:50.847Z,98031.41
2023-10-30T16:52:19.361Z,98030.31
2023-10-30T16:54:46.414Z,98052.03
2023-10-30T16:57:13.508Z,98058.75
2023-10-30T16:59:40.574Z,98067.81
2023-10-30T17:02:08.406Z,98059.75
2023-10-30T17:04:35.513Z,98054.91
2023-10-30T17:07:02.632Z,98068.00
2023-10-30T17:09:30.110Z,98072.25
2023-10-30T17:11:57.219Z,98075.13
2023-10-30T17:14:25.210Z,98084.72
2023-10-30T17:16:52.321Z,98083.34
2023-10-30T17:19:19.461Z,98092.72
2023-10-30T17:21:48.351Z,98098.28
2023-10-30T17:24:15.426Z,98097.97
2023-10-30T17:26:42.522Z,98091.25
2023-10-30T17:29:09.542Z,98087.19
2023-10-30T17:31:36.831Z,98090.38
2023-10-30T17:34:06.258Z,98092.25
2023-10-30T17:36:34.427Z,98090.88
2023-10-30T17:39:08.348Z,98092.53
2023-10-30T17:41:35.451Z,98084.47
2023-10-30T17:44:02.574Z,98080.75
2023-10-30T17:46:30.804Z,98078.06
2023-10-30T17:48:58.378Z,98081.28
2023-10-30T17:51:25.937Z,98073.50
2023-10-30T17:53:53.035Z,98076.72
2023-10-30T17:56:20.141Z,98086.66
2023-10-30T17:58:47.335Z,98088.25
2023-10-30T18:01:17.588Z,98089.06
2023-10-30T18:03:46.330Z,98096.28
2023-10-30T18:06:13.381Z,98109.44
2023-10-30T18:08:40.590Z,98111.06
2023-10-30T18:11:07.874Z,98112.94
2023-10-30T18:13:35.082Z,98111.06
2023-10-30T18:16:03.300Z,98110.81
2023-10-30T18:18:32.333Z,98116.97
2023-10-30T18:20:59.351Z,98105.47
2023-10-30T18:23:28.314Z,98105.75
2023-10-30T18:25:55.560Z,98104.13
2023-10-30T18:28:24.632Z,98104.13
2023-10-30T18:30:52.320Z,98096.66
2023-10-30T18:33:19.482Z,98090.25
2023-10-30T18:35:48.254Z,98084.88
2023-10-30T18:38:16.985Z,98076.84
2023-10-30T18:40:44.846Z,98071.50
2023-10-30T18:43:13.305Z,98078.47
2023-10-30T18:45:42.318Z,98077.66
2023-10-30T18:48:09.822Z,98083.81
2023-10-30T18:50:36.855Z,98090.25
2023-10-30T18:53:04.305Z,98084.63
2023-10-30T18:55:31.407Z,98090.00
2023-10-30T18:58:02.319Z,98083.03
2023-10-30T19:00:29.434Z,98083.03
2023-10-30T19:02:56.667Z,98087.31
2023-10-30T19:05:25.405Z,98087.56
2023-10-30T19:07:52.553Z,98084.09
2023-10-30T19:10:24.273Z,98094.81
2023-10-30T19:12:51.495Z,98085.69
2023-10-30T19:15:24.300Z,98082.44
2023-10-30T19:17:52.189Z,98081.63
2023-10-30T19:20:20.369Z,98083.50
2023-10-30T19:22:47.604Z,98094.22
2023-10-30T19:25:16.432Z,98085.38
2023-10-30T19:27:46.367Z,98090.19
2023-10-30T19:30:15.670Z,98095.53
2023-10-30T19:32:42.960Z,98091.25
2023-10-30T19:35:11.154Z,98091.25
2023-10-30T19:37:39.384Z,98085.31
2023-10-30T19:40:08.284Z,98082.91
2023-10-30T19:42:36.064Z,98085.56
2023-10-30T19:45:03.567Z,98079.66
2023-10-30T19:47:30.704Z,98083.41
2023-10-30T19:49:59.404Z,98082.59
2023-10-30T19:52:27.243Z,98090.88
2023-10-30T19:54:57.502Z,98091.13
2023-10-30T19:57:27.264Z,98084.97
2023-10-30T19:59:54.379Z,98089.78
2023-10-30T20:02:23.301Z,98086.28
2023-10-30T20:04:52.303Z,98087.34
2023-10-30T20:07:19.381Z,98085.72
2023-10-30T20:09:52.418Z,98088.66
2023-10-30T20:12:27.132Z,98078.44
2023-10-30T20:14:56.259Z,98082.19
2023-10-30T20:17:23.354Z,98078.13
2023-10-30T20:19:50.810Z,98069.56
2023-10-30T20:22:20.110Z,98068.75
2023-10-30T20:24:47.535Z,98072.72
2023-10-30T20:27:14.597Z,98075.41
2023-10-30T20:29:42.332Z,98071.91
2023-10-30T20:32:10.648Z,98071.34
2023-10-30T20:34:37.847Z,98067.06
2023-10-30T20:37:04.995Z,98064.38
2023-10-30T20:39:32.153Z,98070.00
2023-10-30T20:41:59.177Z,98069.19
2023-10-30T20:44:28.108Z,98064.06
2023-10-30T20:46:55.304Z,98052.00
2023-10-30T20:49:22.417Z,98047.72
2023-10-30T20:51:50.076Z,98045.28
2023-10-30T20:54:17.115Z,98043.69
2023-10-30T20:56:47.236Z,98040.41
2023-10-30T20:59:15.744Z,98047.66
2023-10-30T21:01:44.371Z,98054.06
2023-10-30T21:04:30.567Z,98053.25
2023-10-30T21:07:16.201Z,98051.66
2023-10-30T21:10:03.451Z,98053.53
2023-10-30T21:12:31.090Z,98061.78
2023-10-30T21:15:02.088Z,98059.94
2023-10-30T21:17:29.662Z,98057.75
2023-10-30T21:19:56.920Z,98060.41
2023-10-30T21:22:24.035Z,98069.50
2023-10-30T21:24:51.093Z,98067.91
2023-10-30T21:27:19.277Z,98066.50
2023-10-30T21:29:48.402Z,98065.97
2023-10-30T21:32:15.525Z,98071.56
2023-10-30T21:34:42.609Z,98065.66
2023-10-30T21:37:09.893Z,98070.44
2023-10-30T21:39:36.990Z,98065.59
2023-10-30T21:42:04.451Z,98066.66
2023-10-30T21:44:31.454Z,98074.09
2023-10-30T21:46:58.594Z,98076.22
2023-10-30T21:49:27.216Z,98088.25
2023-10-30T21:51:54.266Z,98088.47
2023-10-30T21:54:23.597Z,98090.59
2023-10-30T21:56:50.675Z,98083.06
2023-10-30T21:59:17.738Z,98090.28
2023-10-30T22:01:44.877Z,98090.53
2023-10-30T22:04:12.032Z,98094.25
2023-10-30T22:06:39.075Z,98096.38
2023-10-30T22:09:06.153Z,98093.69
2023-10-30T22:11:34.465Z,98099.88
2023-10-30T22:14:01.908Z,98106.03
2023-10-30T22:16:29.106Z,98112.19
2023-10-30T22:18:56.149Z,98116.72
2023-10-30T22:21:23.343Z,98127.41
2023-10-30T22:23:50.453Z,98123.13
2023-10-30T22:26:17.530Z,98129.28
2023-10-30T22:28:48.086Z,98135.44
2023-10-30T22:31:15.429Z,98144.19
2023-10-30T22:33:42.494Z,98141.88
2023-10-30T22:36:09.804Z,98138.38
2023-10-30T22:38:36.792Z,98144.53
2023-10-30T22:41:04.014Z,98149.88
2023-10-30T22:43:31.155Z,98147.78
2023-10-30T22:45:58.424Z,98157.66
2023-10-30T22:48:25.633Z,98155.25
2023-10-30T22:50:52.631Z,98160.59
2023-10-30T22:53:19.711Z,98160.59
2023-10-30T22:55:46.934Z,98176.66
2023-10-30T22:58:14.110Z,98175.03
2023-10-30T23:00:43.912Z,98183.06
2023-10-30T23:03:11.334Z,98188.63
2023-10-30T23:05:38.868Z,98181.44
2023-10-30T23:08:07.172Z,98187.25
2023-10-30T23:10:34.821Z,98192.88
2023-10-30T23:13:02.086Z,98194.97
2023-10-30T23:15:29.206Z,98192.53
2023-10-30T23:17:56.253Z,98197.31
2023-10-30T23:20:25.333Z,98198.63
2023-10-30T23:22:54.136Z,98197.22
2023-10-30T23:25:21.349Z,98202.03
2023-10-30T23:27:48.481Z,98194.50
2023-10-30T23:30:15.651Z,98201.13
2023-10-30T23:32:43.297Z,98206.94
2023-10-30T23:35:11.671Z,98210.66
2023-10-30T23:37:38.733Z,98201.00
2023-10-30T23:40:06.761Z,98195.91
2023-10-30T23:42:33.805Z,98191.84
2023-10-30T23:45:02.916Z,98203.59
2023-10-30T23:47:30.142Z,98227.09
2023-10-30T23:49:57.529Z,98227.34
2023-10-30T23:52:24.550Z,98221.41
2023-10-30T23:54:51.790Z,98225.16
2023-10-30T23:57:19.250Z,98225.38
2023-10-30T23:59:46.249Z,98239.22
